sensor_id;sensor_type;location;lat;lon;timestamp;P1;durP1;ratioP1;P2;durP2;ratioP2
6977;SDS011;3529;53.244;10.414;2022-08-23T00:00:30;1.27;;;1.27;;
6977;SDS011;3529;53.244;10.414;2022-08-23T00:02:56;1.50;;;1.40;;
6977;SDS011;3529;53.244;10.414;2022-08-23T00:05:22;1.20;;;1.20;;
6977;SDS011;3529;53.244;10.414;2022-08-23T00:07:47;1.20;;;1.20;;
6977;SDS011;3529;53.244;10.414;2022-08-23T00:10:14;1.15;;;1.15;;
6977;SDS011;3529;53.244;10.414;2022-08-23T00:12:41;1.30;;;1.20;;
6977;SDS011;3529;53.244;10.414;2022-08-23T00:15:09;1.10;;;1.10;;
6977;SDS011;3529;53.244;10.414;2022-08-23T00:17:36;1.98;;;1.35;;
6977;SDS011;3529;53.244;10.414;2022-08-23T00:20:04;1.20;;;1.20;;
6977;SDS011;3529;53.244;10.414;2022-08-23T00:22:32;1.60;;;1.50;;
6977;SDS011;3529;53.244;10.414;2022-08-23T00:24:57;1.30;;;1.20;;
6977;SDS011;3529;53.244;10.414;2022-08-23T00:27:23;1.30;;;1.30;;
6977;SDS011;3529;53.244;10.414;2022-08-23T00:29:50;1.20;;;1.20;;
6977;SDS011;3529;53.244;10.414;2022-08-23T00:32:22;1.10;;;1.10;;
6977;SDS011;3529;53.244;10.414;2022-08-23T00:34:59;1.48;;;1.40;;
6977;SDS011;3529;53.244;10.414;2022-08-23T00:37:26;1.17;;;1.17;;
6977;SDS011;3529;53.244;10.414;2022-08-23T00:39:52;1.20;;;1.20;;
6977;SDS011;3529;53.244;10.414;2022-08-23T00:42:32;2.22;;;1.35;;
6977;SDS011;3529;53.244;10.414;2022-08-23T00:45:19;1.20;;;1.10;;
6977;SDS011;3529;53.244;10.414;2022-08-23T00:48:09;1.27;;;1.27;;
6977;SDS011;3529;53.244;10.414;2022-08-23T00:50:44;1.60;;;1.50;;
6977;SDS011;3529;53.244;10.414;2022-08-23T00:53:18;1.08;;;1.08;;
6977;SDS011;3529;53.244;10.414;2022-08-23T00:55:47;1.38;;;1.35;;
6977;SDS011;3529;53.244;10.414;2022-08-23T00:58:17;1.20;;;1.20;;
6977;SDS011;3529;53.244;10.414;2022-08-23T01:00:45;1.30;;;1.30;;
6977;SDS011;3529;53.244;10.414;2022-08-23T01:03:11;1.17;;;1.17;;
6977;SDS011;3529;53.244;10.414;2022-08-23T01:05:54;1.30;;;1.30;;
6977;SDS011;3529;53.244;10.414;2022-08-23T01:08:36;1.30;;;1.30;;
6977;SDS011;3529;53.244;10.414;2022-08-23T01:11:05;0.90;;;0.90;;
6977;SDS011;3529;53.244;10.414;2022-08-23T01:13:43;1.20;;;1.20;;
6977;SDS011;3529;53.244;10.414;2022-08-23T01:16:30;1.30;;;1.30;;
6977;SDS011;3529;53.244;10.414;2022-08-23T01:19:02;1.00;;;1.00;;
6977;SDS011;3529;53.244;10.414;2022-08-23T01:21:56;1.40;;;1.30;;
6977;SDS011;3529;53.244;10.414;2022-08-23T01:24:36;1.20;;;1.20;;
6977;SDS011;3529;53.244;10.414;2022-08-23T01:27:03;1.13;;;1.13;;
6977;SDS011;3529;53.244;10.414;2022-08-23T01:29:29;1.25;;;1.25;;
6977;SDS011;3529;53.244;10.414;2022-08-23T01:31:55;1.30;;;1.30;;
6977;SDS011;3529;53.244;10.414;2022-08-23T01:34:24;1.40;;;1.35;;
6977;SDS011;3529;53.244;10.414;2022-08-23T01:36:51;1.23;;;1.23;;
6977;SDS011;3529;53.244;10.414;2022-08-23T01:39:17;1.00;;;1.00;;
6977;SDS011;3529;53.244;10.414;2022-08-23T01:41:43;1.17;;;1.17;;
6977;SDS011;3529;53.244;10.414;2022-08-23T01:44:09;1.30;;;1.30;;
6977;SDS011;3529;53.244;10.414;2022-08-23T01:46:34;1.05;;;1.05;;
6977;SDS011;3529;53.244;10.414;2022-08-23T01:49:01;1.10;;;1.10;;
6977;SDS011;3529;53.244;10.414;2022-08-23T01:51:29;1.23;;;1.23;;
6977;SDS011;3529;53.244;10.414;2022-08-23T01:53:56;1.30;;;1.30;;
6977;SDS011;3529;53.244;10.414;2022-08-23T01:56:21;1.23;;;1.23;;
6977;SDS011;3529;53.244;10.414;2022-08-23T01:58:49;1.38;;;1.38;;
6977;SDS011;3529;53.244;10.414;2022-08-23T02:01:15;1.10;;;1.10;;
6977;SDS011;3529;53.244;10.414;2022-08-23T02:03:43;1.30;;;1.20;;
6977;SDS011;3529;53.244;10.414;2022-08-23T02:06:10;1.30;;;1.30;;
6977;SDS011;3529;53.244;10.414;2022-08-23T02:08:36;1.13;;;1.13;;
6977;SDS011;3529;53.244;10.414;2022-08-23T02:11:21;1.25;;;1.20;;
6977;SDS011;3529;53.244;10.414;2022-08-23T02:13:48;1.10;;;1.10;;
6977;SDS011;3529;53.244;10.414;2022-08-23T02:16:26;1.30;;;1.20;;
6977;SDS011;3529;53.244;10.414;2022-08-23T02:19:00;1.40;;;1.40;;
6977;SDS011;3529;53.244;10.414;2022-08-23T02:21:29;1.50;;;1.50;;
6977;SDS011;3529;53.244;10.414;2022-08-23T02:23:56;1.30;;;1.30;;
6977;SDS011;3529;53.244;10.414;2022-08-23T02:26:23;1.10;;;1.10;;
6977;SDS011;3529;53.244;10.414;2022-08-23T02:28:49;1.45;;;1.45;;
6977;SDS011;3529;53.244;10.414;2022-08-23T02:31:16;1.00;;;1.00;;
6977;SDS011;3529;53.244;10.414;2022-08-23T02:33:42;1.10;;;1.10;;
6977;SDS011;3529;53.244;10.414;2022-08-23T02:36:07;1.73;;;1.63;;
6977;SDS011;3529;53.244;10.414;2022-08-23T02:38:33;1.40;;;1.30;;
6977;SDS011;3529;53.244;10.414;2022-08-23T02:40:59;1.27;;;1.27;;
6977;SDS011;3529;53.244;10.414;2022-08-23T02:43:25;1.20;;;1.20;;
6977;SDS011;3529;53.244;10.414;2022-08-23T02:45:51;1.00;;;1.00;;
6977;SDS011;3529;53.244;10.414;2022-08-23T02:48:16;1.33;;;1.33;;
6977;SDS011;3529;53.244;10.414;2022-08-23T02:50:42;1.20;;;1.20;;
6977;SDS011;3529;53.244;10.414;2022-08-23T02:53:08;1.10;;;1.10;;
6977;SDS011;3529;53.244;10.414;2022-08-23T02:55:33;1.42;;;1.42;;
6977;SDS011;3529;53.244;10.414;2022-08-23T02:57:59;1.27;;;1.27;;
6977;SDS011;3529;53.244;10.414;2022-08-23T03:00:24;1.10;;;1.10;;
6977;SDS011;3529;53.244;10.414;2022-08-23T03:02:50;1.42;;;1.42;;
6977;SDS011;3529;53.244;10.414;2022-08-23T03:05:16;1.65;;;1.55;;
6977;SDS011;3529;53.244;10.414;2022-08-23T03:07:42;1.27;;;1.27;;
6977;SDS011;3529;53.244;10.414;2022-08-23T03:10:08;1.27;;;1.27;;
6977;SDS011;3529;53.244;10.414;2022-08-23T03:12:34;1.42;;;1.33;;
6977;SDS011;3529;53.244;10.414;2022-08-23T03:15:00;1.08;;;1.08;;
6977;SDS011;3529;53.244;10.414;2022-08-23T03:17:26;1.42;;;1.38;;
6977;SDS011;3529;53.244;10.414;2022-08-23T03:19:51;3.80;;;1.40;;
6977;SDS011;3529;53.244;10.414;2022-08-23T03:22:18;1.23;;;1.23;;
6977;SDS011;3529;53.244;10.414;2022-08-23T03:24:44;1.35;;;1.35;;
6977;SDS011;3529;53.244;10.414;2022-08-23T03:27:10;1.05;;;1.05;;
6977;SDS011;3529;53.244;10.414;2022-08-23T03:29:36;1.15;;;1.15;;
6977;SDS011;3529;53.244;10.414;2022-08-23T03:32:02;1.35;;;1.35;;
6977;SDS011;3529;53.244;10.414;2022-08-23T03:34:28;2.78;;;1.40;;
6977;SDS011;3529;53.244;10.414;2022-08-23T03:36:54;1.30;;;1.30;;
6977;SDS011;3529;53.244;10.414;2022-08-23T03:39:23;1.50;;;1.50;;
6977;SDS011;3529;53.244;10.414;2022-08-23T03:41:48;1.38;;;1.30;;
6977;SDS011;3529;53.244;10.414;2022-08-23T03:44:14;1.33;;;1.33;;
6977;SDS011;3529;53.244;10.414;2022-08-23T03:46:43;1.80;;;1.70;;
6977;SDS011;3529;53.244;10.414;2022-08-23T03:49:09;1.50;;;1.40;;
6977;SDS011;3529;53.244;10.414;2022-08-23T03:51:34;1.42;;;1.33;;
6977;SDS011;3529;53.244;10.414;2022-08-23T03:54:00;1.52;;;1.52;;
6977;SDS011;3529;53.244;10.414;2022-08-23T03:56:31;1.40;;;1.35;;
6977;SDS011;3529;53.244;10.414;2022-08-23T03:59:01;1.20;;;1.20;;
6977;SDS011;3529;53.244;10.414;2022-08-23T04:01:29;1.20;;;1.20;;
6977;SDS011;3529;53.244;10.414;2022-08-23T04:03:54;1.48;;;1.40;;
6977;SDS011;3529;53.244;10.414;2022-08-23T04:06:23;2.22;;;2.13;;
6977;SDS011;3529;53.244;10.414;2022-08-23T04:08:51;1.90;;;1.73;;
6977;SDS011;3529;53.244;10.414;2022-08-23T04:11:18;1.23;;;1.23;;
6977;SDS011;3529;53.244;10.414;2022-08-23T04:13:44;1.40;;;1.27;;
6977;SDS011;3529;53.244;10.414;2022-08-23T04:16:10;1.70;;;1.60;;
6977;SDS011;3529;53.244;10.414;2022-08-23T04:18:36;1.35;;;1.35;;
6977;SDS011;3529;53.244;10.414;2022-08-23T04:21:03;1.25;;;1.25;;
6977;SDS011;3529;53.244;10.414;2022-08-23T04:23:31;1.20;;;1.20;;
6977;SDS011;3529;53.244;10.414;2022-08-23T04:25:57;1.33;;;1.33;;
6977;SDS011;3529;53.244;10.414;2022-08-23T04:28:23;1.42;;;1.38;;
6977;SDS011;3529;53.244;10.414;2022-08-23T04:30:49;1.27;;;1.27;;
6977;SDS011;3529;53.244;10.414;2022-08-23T04:33:16;1.45;;;1.35;;
6977;SDS011;3529;53.244;10.414;2022-08-23T04:35:42;2.05;;;1.40;;
6977;SDS011;3529;53.244;10.414;2022-08-23T04:38:09;1.13;;;1.13;;
6977;SDS011;3529;53.244;10.414;2022-08-23T04:40:35;1.55;;;1.45;;
6977;SDS011;3529;53.244;10.414;2022-08-23T04:43:19;1.38;;;1.38;;
6977;SDS011;3529;53.244;10.414;2022-08-23T04:45:45;1.67;;;1.58;;
6977;SDS011;3529;53.244;10.414;2022-08-23T04:48:11;1.20;;;1.20;;
6977;SDS011;3529;53.244;10.414;2022-08-23T04:50:38;1.67;;;1.55;;
6977;SDS011;3529;53.244;10.414;2022-08-23T04:53:04;1.10;;;1.10;;
6977;SDS011;3529;53.244;10.414;2022-08-23T04:55:30;1.20;;;1.20;;
6977;SDS011;3529;53.244;10.414;2022-08-23T04:57:56;1.33;;;1.30;;
6977;SDS011;3529;53.244;10.414;2022-08-23T05:00:22;1.10;;;1.10;;
6977;SDS011;3529;53.244;10.414;2022-08-23T05:02:47;1.17;;;1.17;;
6977;SDS011;3529;53.244;10.414;2022-08-23T05:05:13;1.33;;;1.23;;
6977;SDS011;3529;53.244;10.414;2022-08-23T05:07:39;1.23;;;1.20;;
6977;SDS011;3529;53.244;10.414;2022-08-23T05:10:05;1.23;;;1.23;;
6977;SDS011;3529;53.244;10.414;2022-08-23T05:12:32;1.52;;;1.42;;
6977;SDS011;3529;53.244;10.414;2022-08-23T05:14:59;1.80;;;1.70;;
6977;SDS011;3529;53.244;10.414;2022-08-23T05:17:24;1.20;;;1.20;;
6977;SDS011;3529;53.244;10.414;2022-08-23T05:19:50;1.20;;;1.20;;
6977;SDS011;3529;53.244;10.414;2022-08-23T05:22:16;1.35;;;1.35;;
6977;SDS011;3529;53.244;10.414;2022-08-23T05:24:42;1.27;;;1.27;;
6977;SDS011;3529;53.244;10.414;2022-08-23T05:27:07;1.48;;;1.15;;
6977;SDS011;3529;53.244;10.414;2022-08-23T05:29:34;1.30;;;1.30;;
6977;SDS011;3529;53.244;10.414;2022-08-23T05:32:00;1.23;;;1.23;;
6977;SDS011;3529;53.244;10.414;2022-08-23T05:34:25;1.35;;;1.33;;
6977;SDS011;3529;53.244;10.414;2022-08-23T05:36:51;1.40;;;1.40;;
6977;SDS011;3529;53.244;10.414;2022-08-23T05:39:17;1.65;;;1.55;;
6977;SDS011;3529;53.244;10.414;2022-08-23T05:41:43;1.40;;;1.40;;
6977;SDS011;3529;53.244;10.414;2022-08-23T05:44:09;1.27;;;1.27;;
6977;SDS011;3529;53.244;10.414;2022-08-23T05:46:35;1.20;;;1.20;;
6977;SDS011;3529;53.244;10.414;2022-08-23T05:49:02;1.30;;;1.30;;
6977;SDS011;3529;53.244;10.414;2022-08-23T05:51:28;1.55;;;1.48;;
6977;SDS011;3529;53.244;10.414;2022-08-23T05:53:59;1.90;;;1.33;;
6977;SDS011;3529;53.244;10.414;2022-08-23T05:56:28;1.10;;;1.10;;
6977;SDS011;3529;53.244;10.414;2022-08-23T05:59:00;1.27;;;1.27;;
6977;SDS011;3529;53.244;10.414;2022-08-23T06:01:28;1.20;;;1.20;;
6977;SDS011;3529;53.244;10.414;2022-08-23T06:03:54;1.20;;;1.20;;
6977;SDS011;3529;53.244;10.414;2022-08-23T06:06:22;1.10;;;1.10;;
6977;SDS011;3529;53.244;10.414;2022-08-23T06:08:48;0.93;;;0.93;;
6977;SDS011;3529;53.244;10.414;2022-08-23T06:11:15;1.23;;;1.23;;
6977;SDS011;3529;53.244;10.414;2022-08-23T06:13:47;1.88;;;1.30;;
6977;SDS011;3529;53.244;10.414;2022-08-23T06:16:18;1.13;;;1.13;;
6977;SDS011;3529;53.244;10.414;2022-08-23T06:18:46;1.60;;;1.50;;
6977;SDS011;3529;53.244;10.414;2022-08-23T06:21:12;1.00;;;1.00;;
6977;SDS011;3529;53.244;10.414;2022-08-23T06:23:39;1.65;;;1.55;;
6977;SDS011;3529;53.244;10.414;2022-08-23T06:26:09;1.30;;;1.30;;
6977;SDS011;3529;53.244;10.414;2022-08-23T06:28:36;1.35;;;1.35;;
6977;SDS011;3529;53.244;10.414;2022-08-23T06:31:02;1.63;;;1.52;;
6977;SDS011;3529;53.244;10.414;2022-08-23T06:33:27;1.30;;;1.30;;
6977;SDS011;3529;53.244;10.414;2022-08-23T06:36:04;1.10;;;1.10;;
6977;SDS011;3529;53.244;10.414;2022-08-23T06:38:32;1.30;;;1.30;;
6977;SDS011;3529;53.244;10.414;2022-08-23T06:41:09;1.65;;;1.55;;
6977;SDS011;3529;53.244;10.414;2022-08-23T06:43:37;1.10;;;1.10;;
6977;SDS011;3529;53.244;10.414;2022-08-23T06:46:13;1.70;;;1.60;;
6977;SDS011;3529;53.244;10.414;2022-08-23T06:48:41;1.20;;;1.20;;
6977;SDS011;3529;53.244;10.414;2022-08-23T06:51:20;1.30;;;1.30;;
6977;SDS011;3529;53.244;10.414;2022-08-23T06:53:51;1.20;;;1.20;;
6977;SDS011;3529;53.244;10.414;2022-08-23T06:56:19;1.10;;;1.10;;
6977;SDS011;3529;53.244;10.414;2022-08-23T06:58:46;1.17;;;1.17;;
6977;SDS011;3529;53.244;10.414;2022-08-23T07:01:22;1.42;;;1.33;;
6977;SDS011;3529;53.244;10.414;2022-08-23T07:03:59;1.15;;;1.15;;
6977;SDS011;3529;53.244;10.414;2022-08-23T07:06:28;1.02;;;1.02;;
6977;SDS011;3529;53.244;10.414;2022-08-23T07:08:55;1.00;;;1.00;;
6977;SDS011;3529;53.244;10.414;2022-08-23T07:11:22;1.17;;;1.17;;
6977;SDS011;3529;53.244;10.414;2022-08-23T07:13:49;0.90;;;0.90;;
6977;SDS011;3529;53.244;10.414;2022-08-23T07:16:16;1.10;;;1.10;;
6977;SDS011;3529;53.244;10.414;2022-08-23T07:18:43;1.10;;;1.10;;
6977;SDS011;3529;53.244;10.414;2022-08-23T07:21:10;1.00;;;1.00;;
6977;SDS011;3529;53.244;10.414;2022-08-23T07:23:37;1.17;;;1.17;;
6977;SDS011;3529;53.244;10.414;2022-08-23T07:26:06;1.10;;;1.10;;
6977;SDS011;3529;53.244;10.414;2022-08-23T07:28:33;1.20;;;1.20;;
6977;SDS011;3529;53.244;10.414;2022-08-23T07:31:10;1.20;;;1.20;;
6977;SDS011;3529;53.244;10.414;2022-08-23T07:33:40;1.50;;;1.30;;
6977;SDS011;3529;53.244;10.414;2022-08-23T07:36:07;1.00;;;1.00;;
6977;SDS011;3529;53.244;10.414;2022-08-23T07:38:34;1.20;;;1.20;;
6977;SDS011;3529;53.244;10.414;2022-08-23T07:41:00;1.00;;;1.00;;
6977;SDS011;3529;53.244;10.414;2022-08-23T07:43:27;1.00;;;1.00;;
6977;SDS011;3529;53.244;10.414;2022-08-23T07:45:55;1.08;;;1.08;;
6977;SDS011;3529;53.244;10.414;2022-08-23T07:48:21;1.10;;;1.00;;
6977;SDS011;3529;53.244;10.414;2022-08-23T07:50:51;1.13;;;1.13;;
6977;SDS011;3529;53.244;10.414;2022-08-23T07:53:18;1.00;;;1.00;;
6977;SDS011;3529;53.244;10.414;2022-08-23T07:55:44;1.35;;;1.25;;
6977;SDS011;3529;53.244;10.414;2022-08-23T07:58:09;1.20;;;1.20;;
6977;SDS011;3529;53.244;10.414;2022-08-23T08:00:35;1.10;;;1.10;;
6977;SDS011;3529;53.244;10.414;2022-08-23T08:03:01;1.00;;;1.00;;
6977;SDS011;3529;53.244;10.414;2022-08-23T08:05:26;1.00;;;1.00;;
6977;SDS011;3529;53.244;10.414;2022-08-23T08:07:52;1.05;;;1.05;;
6977;SDS011;3529;53.244;10.414;2022-08-23T08:10:18;1.00;;;1.00;;
6977;SDS011;3529;53.244;10.414;2022-08-23T08:12:44;1.27;;;1.27;;
6977;SDS011;3529;53.244;10.414;2022-08-23T08:15:09;1.00;;;1.00;;
6977;SDS011;3529;53.244;10.414;2022-08-23T08:17:35;1.40;;;1.30;;
6977;SDS011;3529;53.244;10.414;2022-08-23T08:20:01;1.27;;;1.15;;
6977;SDS011;3529;53.244;10.414;2022-08-23T08:22:27;1.00;;;1.00;;
6977;SDS011;3529;53.244;10.414;2022-08-23T08:24:52;1.13;;;1.02;;
6977;SDS011;3529;53.244;10.414;2022-08-23T08:27:18;1.00;;;1.00;;
6977;SDS011;3529;53.244;10.414;2022-08-23T08:29:43;1.20;;;1.20;;
6977;SDS011;3529;53.244;10.414;2022-08-23T08:32:09;1.00;;;1.00;;
6977;SDS011;3529;53.244;10.414;2022-08-23T08:34:35;1.60;;;1.50;;
6977;SDS011;3529;53.244;10.414;2022-08-23T08:37:02;1.00;;;1.00;;
6977;SDS011;3529;53.244;10.414;2022-08-23T08:39:29;1.40;;;1.40;;
6977;SDS011;3529;53.244;10.414;2022-08-23T08:47:07;4.63;;;1.33;;
6977;SDS011;3529;53.244;10.414;2022-08-23T08:52:27;1.00;;;1.00;;
6977;SDS011;3529;53.244;10.414;2022-08-23T08:54:59;0.95;;;0.95;;
6977;SDS011;3529;53.244;10.414;2022-08-23T08:57:35;1.00;;;1.00;;
6977;SDS011;3529;53.244;10.414;2022-08-23T09:00:08;0.95;;;0.95;;
6977;SDS011;3529;53.244;10.414;2022-08-23T09:02:38;1.00;;;1.00;;
6977;SDS011;3529;53.244;10.414;2022-08-23T09:13:27;1.02;;;1.02;;
6977;SDS011;3529;53.244;10.414;2022-08-23T09:18:35;3.03;;;1.10;;
6977;SDS011;3529;53.244;10.414;2022-08-23T09:21:02;0.98;;;0.98;;
6977;SDS011;3529;53.244;10.414;2022-08-23T09:23:32;1.08;;;1.08;;
6977;SDS011;3529;53.244;10.414;2022-08-23T09:26:04;0.90;;;0.90;;
6977;SDS011;3529;53.244;10.414;2022-08-23T09:28:47;0.80;;;0.80;;
6977;SDS011;3529;53.244;10.414;2022-08-23T09:39:47;0.80;;;0.80;;
6977;SDS011;3529;53.244;10.414;2022-08-23T09:44:52;0.90;;;0.90;;
6977;SDS011;3529;53.244;10.414;2022-08-23T09:47:18;0.90;;;0.90;;
6977;SDS011;3529;53.244;10.414;2022-08-23T09:49:45;0.88;;;0.88;;
6977;SDS011;3529;53.244;10.414;2022-08-23T09:54:54;0.80;;;0.80;;
6977;SDS011;3529;53.244;10.414;2022-08-23T09:57:22;0.88;;;0.88;;
6977;SDS011;3529;53.244;10.414;2022-08-23T09:59:51;0.80;;;0.80;;
6977;SDS011;3529;53.244;10.414;2022-08-23T10:04:53;2.78;;;0.65;;
6977;SDS011;3529;53.244;10.414;2022-08-23T10:09:51;0.73;;;0.73;;
6977;SDS011;3529;53.244;10.414;2022-08-23T10:12:18;2.28;;;0.52;;
6977;SDS011;3529;53.244;10.414;2022-08-23T10:14:44;0.60;;;0.60;;
6977;SDS011;3529;53.244;10.414;2022-08-23T10:19:53;0.70;;;0.70;;
6977;SDS011;3529;53.244;10.414;2022-08-23T10:22:28;0.70;;;0.70;;
6977;SDS011;3529;53.244;10.414;2022-08-23T10:25:03;0.68;;;0.68;;
6977;SDS011;3529;53.244;10.414;2022-08-23T10:30:20;1.90;;;0.47;;
6977;SDS011;3529;53.244;10.414;2022-08-23T10:45:35;0.63;;;0.63;;
6977;SDS011;3529;53.244;10.414;2022-08-23T10:48:22;0.60;;;0.60;;
6977;SDS011;3529;53.244;10.414;2022-08-23T10:51:01;0.63;;;0.63;;
6977;SDS011;3529;53.244;10.414;2022-08-23T10:53:46;0.60;;;0.60;;
6977;SDS011;3529;53.244;10.414;2022-08-23T10:56:14;0.60;;;0.60;;
6977;SDS011;3529;53.244;10.414;2022-08-23T10:58:50;0.70;;;0.70;;
6977;SDS011;3529;53.244;10.414;2022-08-23T11:01:18;0.75;;;0.75;;
6977;SDS011;3529;53.244;10.414;2022-08-23T11:03:58;0.73;;;0.73;;
6977;SDS011;3529;53.244;10.414;2022-08-23T11:06:28;0.80;;;0.80;;
6977;SDS011;3529;53.244;10.414;2022-08-23T11:11:37;0.50;;;0.50;;
6977;SDS011;3529;53.244;10.414;2022-08-23T11:14:03;0.50;;;0.50;;
6977;SDS011;3529;53.244;10.414;2022-08-23T11:16:30;0.50;;;0.50;;
6977;SDS011;3529;53.244;10.414;2022-08-23T11:18:57;0.68;;;0.68;;
6977;SDS011;3529;53.244;10.414;2022-08-23T11:23:50;0.60;;;0.60;;
6977;SDS011;3529;53.244;10.414;2022-08-23T11:28:48;0.68;;;0.68;;
6977;SDS011;3529;53.244;10.414;2022-08-23T11:33:45;0.65;;;0.65;;
6977;SDS011;3529;53.244;10.414;2022-08-23T11:43:42;0.50;;;0.50;;
6977;SDS011;3529;53.244;10.414;2022-08-23T11:54:10;0.60;;;0.60;;
6977;SDS011;3529;53.244;10.414;2022-08-23T12:01:58;0.75;;;0.75;;
6977;SDS011;3529;53.244;10.414;2022-08-23T12:04:46;0.70;;;0.70;;
6977;SDS011;3529;53.244;10.414;2022-08-23T12:07:41;0.63;;;0.63;;
6977;SDS011;3529;53.244;10.414;2022-08-23T12:10:03;0.70;;;0.70;;
6977;SDS011;3529;53.244;10.414;2022-08-23T12:12:31;0.90;;;0.90;;
6977;SDS011;3529;53.244;10.414;2022-08-23T12:14:58;5.97;;;0.68;;
6977;SDS011;3529;53.244;10.414;2022-08-23T12:22:34;0.90;;;0.70;;
6977;SDS011;3529;53.244;10.414;2022-08-23T12:25:17;0.50;;;0.50;;
6977;SDS011;3529;53.244;10.414;2022-08-23T12:27:49;0.75;;;0.70;;
6977;SDS011;3529;53.244;10.414;2022-08-23T12:30:21;1.60;;;0.65;;
6977;SDS011;3529;53.244;10.414;2022-08-23T12:33:03;0.70;;;0.70;;
6977;SDS011;3529;53.244;10.414;2022-08-23T12:35:33;0.50;;;0.50;;
6977;SDS011;3529;53.244;10.414;2022-08-23T12:40:41;0.70;;;0.70;;
6977;SDS011;3529;53.244;10.414;2022-08-23T12:45:44;8.50;;;1.40;;
6977;SDS011;3529;53.244;10.414;2022-08-23T12:48:13;0.40;;;0.40;;
6977;SDS011;3529;53.244;10.414;2022-08-23T12:50:41;0.60;;;0.60;;
6977;SDS011;3529;53.244;10.414;2022-08-23T12:53:15;0.55;;;0.55;;
6977;SDS011;3529;53.244;10.414;2022-08-23T12:55:49;0.50;;;0.50;;
6977;SDS011;3529;53.244;10.414;2022-08-23T12:58:16;0.60;;;0.60;;
6977;SDS011;3529;53.244;10.414;2022-08-23T13:00:51;0.47;;;0.47;;
6977;SDS011;3529;53.244;10.414;2022-08-23T13:08:14;0.60;;;0.60;;
6977;SDS011;3529;53.244;10.414;2022-08-23T13:10:43;0.52;;;0.52;;
6977;SDS011;3529;53.244;10.414;2022-08-23T13:13:10;0.50;;;0.50;;
6977;SDS011;3529;53.244;10.414;2022-08-23T13:15:38;0.60;;;0.60;;
6977;SDS011;3529;53.244;10.414;2022-08-23T13:18:04;0.60;;;0.60;;
6977;SDS011;3529;53.244;10.414;2022-08-23T13:20:30;0.40;;;0.40;;
6977;SDS011;3529;53.244;10.414;2022-08-23T13:25:36;0.60;;;0.60;;
6977;SDS011;3529;53.244;10.414;2022-08-23T13:28:07;0.80;;;0.80;;
6977;SDS011;3529;53.244;10.414;2022-08-23T13:30:34;0.50;;;0.50;;
6977;SDS011;3529;53.244;10.414;2022-08-23T13:38:09;0.80;;;0.80;;
6977;SDS011;3529;53.244;10.414;2022-08-23T13:43:28;0.57;;;0.57;;
6977;SDS011;3529;53.244;10.414;2022-08-23T13:45:56;0.70;;;0.70;;
6977;SDS011;3529;53.244;10.414;2022-08-23T13:50:51;0.52;;;0.52;;
6977;SDS011;3529;53.244;10.414;2022-08-23T13:53:18;5.78;;;0.70;;
6977;SDS011;3529;53.244;10.414;2022-08-23T13:55:51;3.20;;;0.60;;
6977;SDS011;3529;53.244;10.414;2022-08-23T13:58:31;0.80;;;0.80;;
6977;SDS011;3529;53.244;10.414;2022-08-23T14:00:58;0.52;;;0.52;;
6977;SDS011;3529;53.244;10.414;2022-08-23T14:03:24;0.77;;;0.77;;
6977;SDS011;3529;53.244;10.414;2022-08-23T14:05:51;0.50;;;0.50;;
6977;SDS011;3529;53.244;10.414;2022-08-23T14:08:18;0.43;;;0.43;;
6977;SDS011;3529;53.244;10.414;2022-08-23T14:10:44;0.73;;;0.60;;
6977;SDS011;3529;53.244;10.414;2022-08-23T14:13:10;0.70;;;0.70;;
6977;SDS011;3529;53.244;10.414;2022-08-23T14:15:37;0.82;;;0.60;;
6977;SDS011;3529;53.244;10.414;2022-08-23T14:18:04;0.65;;;0.65;;
6977;SDS011;3529;53.244;10.414;2022-08-23T14:20:30;0.65;;;0.65;;
6977;SDS011;3529;53.244;10.414;2022-08-23T14:22:56;0.45;;;0.45;;
6977;SDS011;3529;53.244;10.414;2022-08-23T14:25:22;0.88;;;0.88;;
6977;SDS011;3529;53.244;10.414;2022-08-23T14:27:48;0.63;;;0.63;;
6977;SDS011;3529;53.244;10.414;2022-08-23T14:30:21;0.60;;;0.60;;
6977;SDS011;3529;53.244;10.414;2022-08-23T14:32:47;0.60;;;0.60;;
6977;SDS011;3529;53.244;10.414;2022-08-23T14:35:13;0.80;;;0.80;;
6977;SDS011;3529;53.244;10.414;2022-08-23T14:37:39;0.88;;;0.88;;
6977;SDS011;3529;53.244;10.414;2022-08-23T14:40:05;0.52;;;0.52;;
6977;SDS011;3529;53.244;10.414;2022-08-23T14:42:33;0.73;;;0.68;;
6977;SDS011;3529;53.244;10.414;2022-08-23T14:44:59;1.15;;;1.15;;
6977;SDS011;3529;53.244;10.414;2022-08-23T14:47:25;0.73;;;0.73;;
6977;SDS011;3529;53.244;10.414;2022-08-23T14:49:51;0.57;;;0.57;;
6977;SDS011;3529;53.244;10.414;2022-08-23T14:52:17;1.02;;;0.80;;
6977;SDS011;3529;53.244;10.414;2022-08-23T14:54:43;0.80;;;0.80;;
6977;SDS011;3529;53.244;10.414;2022-08-23T14:57:09;0.60;;;0.60;;
6977;SDS011;3529;53.244;10.414;2022-08-23T14:59:36;0.70;;;0.70;;
6977;SDS011;3529;53.244;10.414;2022-08-23T15:02:05;0.68;;;0.68;;
6977;SDS011;3529;53.244;10.414;2022-08-23T15:04:31;0.65;;;0.65;;
6977;SDS011;3529;53.244;10.414;2022-08-23T15:06:57;0.70;;;0.70;;
6977;SDS011;3529;53.244;10.414;2022-08-23T15:09:23;0.70;;;0.70;;
6977;SDS011;3529;53.244;10.414;2022-08-23T15:11:52;0.75;;;0.75;;
6977;SDS011;3529;53.244;10.414;2022-08-23T15:14:19;0.60;;;0.60;;
6977;SDS011;3529;53.244;10.414;2022-08-23T15:16:45;1.02;;;0.95;;
6977;SDS011;3529;53.244;10.414;2022-08-23T15:19:11;0.90;;;0.70;;
6977;SDS011;3529;53.244;10.414;2022-08-23T15:21:37;0.73;;;0.73;;
6977;SDS011;3529;53.244;10.414;2022-08-23T15:24:04;0.60;;;0.60;;
6977;SDS011;3529;53.244;10.414;2022-08-23T15:26:30;0.50;;;0.50;;
6977;SDS011;3529;53.244;10.414;2022-08-23T15:28:57;0.98;;;0.88;;
6977;SDS011;3529;53.244;10.414;2022-08-23T15:31:23;0.82;;;0.82;;
6977;SDS011;3529;53.244;10.414;2022-08-23T15:33:49;1.15;;;1.15;;
6977;SDS011;3529;53.244;10.414;2022-08-23T15:36:15;1.23;;;1.00;;
6977;SDS011;3529;53.244;10.414;2022-08-23T15:38:42;0.70;;;0.70;;
6977;SDS011;3529;53.244;10.414;2022-08-23T15:41:09;0.60;;;0.60;;
6977;SDS011;3529;53.244;10.414;2022-08-23T15:43:35;0.52;;;0.52;;
6977;SDS011;3529;53.244;10.414;2022-08-23T15:46:04;0.50;;;0.50;;
6977;SDS011;3529;53.244;10.414;2022-08-23T15:48:33;0.85;;;0.70;;
6977;SDS011;3529;53.244;10.414;2022-08-23T15:51:00;0.77;;;0.70;;
6977;SDS011;3529;53.244;10.414;2022-08-23T15:53:26;0.90;;;0.90;;
6977;SDS011;3529;53.244;10.414;2022-08-23T15:55:52;0.65;;;0.65;;
6977;SDS011;3529;53.244;10.414;2022-08-23T15:58:24;0.80;;;0.80;;
6977;SDS011;3529;53.244;10.414;2022-08-23T16:00:50;0.70;;;0.70;;
6977;SDS011;3529;53.244;10.414;2022-08-23T16:03:17;0.80;;;0.80;;
6977;SDS011;3529;53.244;10.414;2022-08-23T16:05:44;1.55;;;0.95;;
6977;SDS011;3529;53.244;10.414;2022-08-23T16:08:12;1.13;;;1.00;;
6977;SDS011;3529;53.244;10.414;2022-08-23T16:10:40;0.70;;;0.70;;
6977;SDS011;3529;53.244;10.414;2022-08-23T16:13:07;0.98;;;0.90;;
6977;SDS011;3529;53.244;10.414;2022-08-23T16:15:33;1.70;;;1.58;;
6977;SDS011;3529;53.244;10.414;2022-08-23T16:17:59;1.10;;;1.10;;
6977;SDS011;3529;53.244;10.414;2022-08-23T16:20:25;0.60;;;0.60;;
6977;SDS011;3529;53.244;10.414;2022-08-23T16:22:51;0.80;;;0.80;;
6977;SDS011;3529;53.244;10.414;2022-08-23T16:25:17;0.82;;;0.82;;
6977;SDS011;3529;53.244;10.414;2022-08-23T16:27:43;0.90;;;0.90;;
6977;SDS011;3529;53.244;10.414;2022-08-23T16:30:09;0.77;;;0.77;;
6977;SDS011;3529;53.244;10.414;2022-08-23T16:32:35;0.70;;;0.70;;
6977;SDS011;3529;53.244;10.414;2022-08-23T16:35:00;0.80;;;0.80;;
6977;SDS011;3529;53.244;10.414;2022-08-23T16:37:27;0.73;;;0.73;;
6977;SDS011;3529;53.244;10.414;2022-08-23T16:39:52;1.20;;;1.20;;
6977;SDS011;3529;53.244;10.414;2022-08-23T16:42:21;0.90;;;0.90;;
6977;SDS011;3529;53.244;10.414;2022-08-23T16:44:46;0.77;;;0.77;;
6977;SDS011;3529;53.244;10.414;2022-08-23T16:47:12;0.90;;;0.90;;
6977;SDS011;3529;53.244;10.414;2022-08-23T16:49:39;0.80;;;0.80;;
6977;SDS011;3529;53.244;10.414;2022-08-23T16:52:06;0.90;;;0.90;;
6977;SDS011;3529;53.244;10.414;2022-08-23T16:54:32;1.10;;;1.00;;
6977;SDS011;3529;53.244;10.414;2022-08-23T16:56:57;0.80;;;0.80;;
6977;SDS011;3529;53.244;10.414;2022-08-23T16:59:23;0.80;;;0.80;;
6977;SDS011;3529;53.244;10.414;2022-08-23T17:01:56;0.75;;;0.75;;